sensor_id;sensor_type;location;lat;lon;timestamp;pressure;altitude;pressure_sealevel;temperature;humidity
77662;BME280;67292;52.136;5.424;2023-03-03T00:00:42;102739.47;;;2.21;87.76
77662;BME280;67292;52.136;5.424;2023-03-03T00:03:11;102733.16;;;2.14;87.50
77662;BME280;67292;52.136;5.424;2023-03-03T00:05:41;102732.16;;;2.11;85.82
77662;BME280;67292;52.136;5.424;2023-03-03T00:08:09;102747.19;;;2.16;87.67
77662;BME280;67292;52.136;5.424;2023-03-03T00:10:37;102745.38;;;2.14;87.01
77662;BME280;67292;52.136;5.424;2023-03-03T00:13:14;102733.78;;;2.07;87.97
77662;BME280;67292;52.136;5.424;2023-03-03T00:15:41;102741.81;;;2.12;87.31
77662;BME280;67292;52.136;5.424;2023-03-03T00:20:52;102732.94;;;2.08;85.96
77662;BME280;67292;52.136;5.424;2023-03-03T00:23:39;102742.59;;;2.09;88.02
77662;BME280;67292;52.136;5.424;2023-03-03T00:28:52;102752.44;;;2.15;87.36
77662;BME280;67292;52.136;5.424;2023-03-03T00:31:28;102747.97;;;2.12;88.33
77662;BME280;67292;52.136;5.424;2023-03-03T00:34:14;102753.31;;;2.15;87.81
77662;BME280;67292;52.136;5.424;2023-03-03T00:36:51;102757.75;;;2.18;89.24
77662;BME280;67292;52.136;5.424;2023-03-03T00:41:56;102759.53;;;2.19;88.69
77662;BME280;67292;52.136;5.424;2023-03-03T00:46:51;102756.91;;;2.19;88.73
77662;BME280;67292;52.136;5.424;2023-03-03T00:49:25;102763.91;;;2.18;88.20
77662;BME280;67292;52.136;5.424;2023-03-03T00:51:53;102763.94;;;2.20;88.95
77662;BME280;67292;52.136;5.424;2023-03-03T00:54:19;102757.81;;;2.19;88.71
77662;BME280;67292;52.136;5.424;2023-03-03T00:56:46;102762.25;;;2.22;88.87
77662;BME280;67292;52.136;5.424;2023-03-03T00:59:12;102756.91;;;2.19;88.80
77662;BME280;67292;52.136;5.424;2023-03-03T01:01:39;102757.84;;;2.21;88.56
77662;BME280;67292;52.136;5.424;2023-03-03T01:04:05;102763.94;;;2.20;88.02
77662;BME280;67292;52.136;5.424;2023-03-03T01:06:32;102769.34;;;2.25;88.97
77662;BME280;67292;52.136;5.424;2023-03-03T01:08:59;102764.94;;;2.24;89.34
77662;BME280;67292;52.136;5.424;2023-03-03T01:11:26;102758.63;;;2.18;89.18
77662;BME280;67292;52.136;5.424;2023-03-03T01:13:55;102769.31;;;2.23;88.29
77662;BME280;67292;52.136;5.424;2023-03-03T01:16:22;102767.63;;;2.25;87.95
77662;BME280;67292;52.136;5.424;2023-03-03T01:18:49;102774.59;;;2.25;89.08
77662;BME280;67292;52.136;5.424;2023-03-03T01:21:15;102768.41;;;2.23;88.89
77662;BME280;67292;52.136;5.424;2023-03-03T01:23:42;102765.78;;;2.23;89.42
77662;BME280;67292;52.136;5.424;2023-03-03T01:26:08;102766.81;;;2.28;89.62
77662;BME280;67292;52.136;5.424;2023-03-03T01:28:36;102759.69;;;2.24;89.51
77662;BME280;67292;52.136;5.424;2023-03-03T01:31:04;102765.13;;;2.30;89.51
77662;BME280;67292;52.136;5.424;2023-03-03T01:33:32;102770.38;;;2.30;88.93
77662;BME280;67292;52.136;5.424;2023-03-03T01:35:59;102761.47;;;2.25;89.01
77662;BME280;67292;52.136;5.424;2023-03-03T01:38:26;102766.00;;;2.30;88.56
77662;BME280;67292;52.136;5.424;2023-03-03T01:40:55;102758.97;;;2.29;89.10
77662;BME280;67292;52.136;5.424;2023-03-03T01:43:22;102764.16;;;2.28;88.90
77662;BME280;67292;52.136;5.424;2023-03-03T01:48:23;102773.00;;;2.30;88.68
77662;BME280;67292;52.136;5.424;2023-03-03T01:50:56;102774.72;;;2.29;89.23
77662;BME280;67292;52.136;5.424;2023-03-03T01:53:45;102770.41;;;2.31;88.80
77662;BME280;67292;52.136;5.424;2023-03-03T01:56:13;102771.22;;;2.29;89.44
77662;BME280;67292;52.136;5.424;2023-03-03T01:58:53;102772.16;;;2.31;89.15
77662;BME280;67292;52.136;5.424;2023-03-03T02:01:26;102771.25;;;2.30;89.39
77662;BME280;67292;52.136;5.424;2023-03-03T02:03:54;102765.13;;;2.30;88.26
77662;BME280;67292;52.136;5.424;2023-03-03T02:06:25;102778.19;;;2.28;88.71
77662;BME280;67292;52.136;5.424;2023-03-03T02:08:58;102773.81;;;2.27;88.88
77662;BME280;67292;52.136;5.424;2023-03-03T02:11:27;102776.47;;;2.29;88.83
77662;BME280;67292;52.136;5.424;2023-03-03T02:13:54;102772.06;;;2.28;88.36
77662;BME280;67292;52.136;5.424;2023-03-03T02:16:21;102765.00;;;2.25;89.24
77662;BME280;67292;52.136;5.424;2023-03-03T02:18:48;102757.84;;;2.21;89.48
77662;BME280;67292;52.136;5.424;2023-03-03T02:21:23;102778.19;;;2.28;89.47
77662;BME280;67292;52.136;5.424;2023-03-03T02:24:12;102767.69;;;2.28;89.13
77662;BME280;67292;52.136;5.424;2023-03-03T02:26:43;102773.81;;;2.27;89.73
77662;BME280;67292;52.136;5.424;2023-03-03T02:29:10;102763.22;;;2.24;88.76
77662;BME280;67292;52.136;5.424;2023-03-03T02:31:37;102757.97;;;2.24;89.22
77662;BME280;67292;52.136;5.424;2023-03-03T02:34:04;102772.81;;;2.24;89.41
77662;BME280;67292;52.136;5.424;2023-03-03T02:36:34;102778.91;;;2.23;89.08
77662;BME280;67292;52.136;5.424;2023-03-03T02:39:23;102770.19;;;2.24;89.25
77662;BME280;67292;52.136;5.424;2023-03-03T02:44:31;102764.84;;;2.20;89.30
77662;BME280;67292;52.136;5.424;2023-03-03T02:46:58;102763.91;;;2.18;89.47
77662;BME280;67292;52.136;5.424;2023-03-03T02:49:27;102760.31;;;2.15;89.59
77662;BME280;67292;52.136;5.424;2023-03-03T02:51:54;102773.50;;;2.18;89.11
77662;BME280;67292;52.136;5.424;2023-03-03T02:54:23;102761.28;;;2.18;89.71
77662;BME280;67292;52.136;5.424;2023-03-03T02:56:50;102768.31;;;2.19;89.45
77662;BME280;67292;52.136;5.424;2023-03-03T02:59:17;102769.16;;;2.18;89.04
77662;BME280;67292;52.136;5.424;2023-03-03T03:01:45;102770.09;;;2.20;89.40
77662;BME280;67292;52.136;5.424;2023-03-03T03:04:17;102771.88;;;2.22;90.37
77662;BME280;67292;52.136;5.424;2023-03-03T03:06:45;102779.81;;;2.23;89.17
77662;BME280;67292;52.136;5.424;2023-03-03T03:09:13;102776.22;;;2.21;88.60
77662;BME280;67292;52.136;5.424;2023-03-03T03:11:41;102773.56;;;2.19;88.39
77662;BME280;67292;52.136;5.424;2023-03-03T03:14:10;102769.06;;;2.15;89.62
77662;BME280;67292;52.136;5.424;2023-03-03T03:16:37;102769.97;;;2.17;89.19
77662;BME280;67292;52.136;5.424;2023-03-03T03:19:04;102764.59;;;2.13;89.93
77662;BME280;67292;52.136;5.424;2023-03-03T03:21:32;102762.88;;;2.13;90.53
77662;BME280;67292;52.136;5.424;2023-03-03T03:23:59;102762.16;;;2.19;89.39
77662;BME280;67292;52.136;5.424;2023-03-03T03:26:26;102759.53;;;2.19;89.70
77662;BME280;67292;52.136;5.424;2023-03-03T03:28:52;102766.63;;;2.22;89.82
77662;BME280;67292;52.136;5.424;2023-03-03T03:31:20;102771.94;;;2.23;89.73
77662;BME280;67292;52.136;5.424;2023-03-03T03:33:47;102766.56;;;2.20;89.92
77662;BME280;67292;52.136;5.424;2023-03-03T03:36:14;102769.19;;;2.20;89.12
77662;BME280;67292;52.136;5.424;2023-03-03T03:38:41;102764.72;;;2.17;88.75
77662;BME280;67292;52.136;5.424;2023-03-03T03:41:09;102768.25;;;2.18;89.48
77662;BME280;67292;52.136;5.424;2023-03-03T03:43:36;102756.78;;;2.14;89.83
77662;BME280;67292;52.136;5.424;2023-03-03T03:46:03;102775.34;;;2.20;89.51
77662;BME280;67292;52.136;5.424;2023-03-03T03:48:30;102773.44;;;2.15;89.78
77662;BME280;67292;52.136;5.424;2023-03-03T03:50:57;102769.84;;;2.13;89.00
77662;BME280;67292;52.136;5.424;2023-03-03T03:53:23;102769.91;;;2.14;89.87
77662;BME280;67292;52.136;5.424;2023-03-03T03:55:50;102773.31;;;2.12;89.31
77662;BME280;67292;52.136;5.424;2023-03-03T03:58:17;102787.44;;;2.15;88.29
77662;BME280;67292;52.136;5.424;2023-03-03T04:00:46;102789.13;;;2.13;89.08
77662;BME280;67292;52.136;5.424;2023-03-03T04:03:13;102789.03;;;2.10;90.38
77662;BME280;67292;52.136;5.424;2023-03-03T04:05:40;102791.75;;;2.13;89.92
77662;BME280;67292;52.136;5.424;2023-03-03T04:08:08;102791.66;;;2.10;90.16
77662;BME280;67292;52.136;5.424;2023-03-03T04:10:35;102796.22;;;2.16;90.27
77662;BME280;67292;52.136;5.424;2023-03-03T04:13:01;102796.16;;;2.14;90.42
77662;BME280;67292;52.136;5.424;2023-03-03T04:15:28;102782.78;;;2.07;90.49
77662;BME280;67292;52.136;5.424;2023-03-03T04:17:55;102788.28;;;2.14;89.83
77662;BME280;67292;52.136;5.424;2023-03-03T04:20:22;102777.56;;;2.08;90.09
77662;BME280;67292;52.136;5.424;2023-03-03T04:22:49;102783.78;;;2.10;89.83
77662;BME280;67292;52.136;5.424;2023-03-03T04:25:16;102789.97;;;2.12;90.58
77662;BME280;67292;52.136;5.424;2023-03-03T04:27:43;102798.69;;;2.11;90.27
77662;BME280;67292;52.136;5.424;2023-03-03T04:30:12;102794.28;;;2.10;90.00
77662;BME280;67292;52.136;5.424;2023-03-03T04:32:40;102790.75;;;2.10;90.51
77662;BME280;67292;52.136;5.424;2023-03-03T04:35:07;102793.38;;;2.10;90.43
77662;BME280;67292;52.136;5.424;2023-03-03T04:37:35;102784.59;;;2.09;89.12
77662;BME280;67292;52.136;5.424;2023-03-03T04:40:04;102776.59;;;2.05;90.50
77662;BME280;67292;52.136;5.424;2023-03-03T04:42:32;102779.22;;;2.05;90.10
77662;BME280;67292;52.136;5.424;2023-03-03T04:44:59;102794.31;;;2.12;90.66
77662;BME280;67292;52.136;5.424;2023-03-03T04:47:25;102797.91;;;2.14;91.46
77662;BME280;67292;52.136;5.424;2023-03-03T04:49:54;102800.47;;;2.12;91.26
77662;BME280;67292;52.136;5.424;2023-03-03T04:52:21;102806.63;;;2.13;90.03
77662;BME280;67292;52.136;5.424;2023-03-03T04:54:47;102798.75;;;2.13;91.65
77662;BME280;67292;52.136;5.424;2023-03-03T04:57:14;102802.25;;;2.13;90.64
77662;BME280;67292;52.136;5.424;2023-03-03T04:59:40;102807.44;;;2.12;91.25
77662;BME280;67292;52.136;5.424;2023-03-03T05:02:07;102802.25;;;2.13;90.98
77662;BME280;67292;52.136;5.424;2023-03-03T05:04:35;102801.38;;;2.13;91.24
77662;BME280;67292;52.136;5.424;2023-03-03T05:07:02;102793.53;;;2.14;91.90
77662;BME280;67292;52.136;5.424;2023-03-03T05:09:28;102790.81;;;2.11;91.65
77662;BME280;67292;52.136;5.424;2023-03-03T05:11:55;102782.19;;;2.15;91.06
77662;BME280;67292;52.136;5.424;2023-03-03T05:14:21;102775.16;;;2.14;91.83
77662;BME280;67292;52.136;5.424;2023-03-03T05:16:48;102775.16;;;2.14;92.26
77662;BME280;67292;52.136;5.424;2023-03-03T05:19:15;102788.47;;;2.20;91.21
77662;BME280;67292;52.136;5.424;2023-03-03T05:21:41;102784.09;;;2.21;91.69
77662;BME280;67292;52.136;5.424;2023-03-03T05:24:12;102792.09;;;2.24;91.01
77662;BME280;67292;52.136;5.424;2023-03-03T05:26:39;102788.56;;;2.24;91.51
77662;BME280;67292;52.136;5.424;2023-03-03T05:29:07;102791.19;;;2.24;91.69
77662;BME280;67292;52.136;5.424;2023-03-03T05:31:34;102785.00;;;2.22;91.51
77662;BME280;67292;52.136;5.424;2023-03-03T05:34:01;102783.28;;;2.22;91.77
77662;BME280;67292;52.136;5.424;2023-03-03T05:36:27;102786.00;;;2.25;91.92
77662;BME280;67292;52.136;5.424;2023-03-03T05:38:54;102787.78;;;2.26;91.40
77662;BME280;67292;52.136;5.424;2023-03-03T05:41:21;102782.59;;;2.29;92.16
77662;BME280;67292;52.136;5.424;2023-03-03T05:43:47;102793.16;;;2.31;92.56
77662;BME280;67292;52.136;5.424;2023-03-03T05:46:14;102789.69;;;2.32;91.35
77662;BME280;67292;52.136;5.424;2023-03-03T05:48:41;102788.84;;;2.33;92.38
77662;BME280;67292;52.136;5.424;2023-03-03T05:51:08;102797.69;;;2.35;93.27
77662;BME280;67292;52.136;5.424;2023-03-03T05:53:35;102802.16;;;2.37;92.48
77662;BME280;67292;52.136;5.424;2023-03-03T05:56:02;102789.94;;;2.39;91.78
77662;BME280;67292;52.136;5.424;2023-03-03T05:58:29;102792.59;;;2.41;92.39
77662;BME280;67292;52.136;5.424;2023-03-03T06:00:56;102789.00;;;2.37;92.75
77662;BME280;67292;52.136;5.424;2023-03-03T06:03:22;102782.88;;;2.37;92.61
77662;BME280;67292;52.136;5.424;2023-03-03T06:05:49;102796.19;;;2.43;93.00
77662;BME280;67292;52.136;5.424;2023-03-03T06:08:15;102802.31;;;2.43;92.50
77662;BME280;67292;52.136;5.424;2023-03-03T06:10:42;102802.31;;;2.43;92.13
77662;BME280;67292;52.136;5.424;2023-03-03T06:13:08;102806.69;;;2.43;92.85
77662;BME280;67292;52.136;5.424;2023-03-03T06:15:35;102798.00;;;2.45;92.45
77662;BME280;67292;52.136;5.424;2023-03-03T06:18:02;102801.47;;;2.44;92.73
77662;BME280;67292;52.136;5.424;2023-03-03T06:20:29;102799.69;;;2.43;92.15
77662;BME280;67292;52.136;5.424;2023-03-03T06:22:56;102817.38;;;2.49;93.43
77662;BME280;67292;52.136;5.424;2023-03-03T06:25:22;102801.47;;;2.44;93.27
77662;BME280;67292;52.136;5.424;2023-03-03T06:27:49;102812.94;;;2.46;93.06
77662;BME280;67292;52.136;5.424;2023-03-03T06:30:15;102811.28;;;2.50;93.12
77662;BME280;67292;52.136;5.424;2023-03-03T06:32:42;102823.56;;;2.51;93.21
77662;BME280;67292;52.136;5.424;2023-03-03T06:35:09;102812.09;;;2.49;92.99
77662;BME280;67292;52.136;5.424;2023-03-03T06:37:36;102809.53;;;2.50;93.13
77662;BME280;67292;52.136;5.424;2023-03-03T06:40:04;102814.84;;;2.52;91.85
77662;BME280;67292;52.136;5.424;2023-03-03T06:42:31;102820.16;;;2.53;92.15
77662;BME280;67292;52.136;5.424;2023-03-03T06:44:57;102818.41;;;2.54;92.71
77662;BME280;67292;52.136;5.424;2023-03-03T06:47:24;102825.50;;;2.56;93.48
77662;BME280;67292;52.136;5.424;2023-03-03T06:49:51;102829.03;;;2.57;94.20
77662;BME280;67292;52.136;5.424;2023-03-03T06:52:22;102833.44;;;2.58;93.48
77662;BME280;67292;52.136;5.424;2023-03-03T06:54:53;102838.63;;;2.56;93.94
77662;BME280;67292;52.136;5.424;2023-03-03T06:57:29;102827.09;;;2.51;93.92
77662;BME280;67292;52.136;5.424;2023-03-03T07:00:01;102836.13;;;2.60;93.53
77662;BME280;67292;52.136;5.424;2023-03-03T07:02:35;102830.75;;;2.56;93.20
77662;BME280;67292;52.136;5.424;2023-03-03T07:05:11;102838.81;;;2.63;93.60
77662;BME280;67292;52.136;5.424;2023-03-03T07:07:39;102849.47;;;2.67;92.48
77662;BME280;67292;52.136;5.424;2023-03-03T07:10:23;102845.84;;;2.64;93.99
77662;BME280;67292;52.136;5.424;2023-03-03T07:12:51;102854.78;;;2.69;93.90
77662;BME280;67292;52.136;5.424;2023-03-03T07:15:25;102856.56;;;2.70;92.42
77662;BME280;67292;52.136;5.424;2023-03-03T07:17:56;102855.75;;;2.72;93.70
77662;BME280;67292;52.136;5.424;2023-03-03T07:20:32;102869.88;;;2.76;92.35
77662;BME280;67292;52.136;5.424;2023-03-03T07:23:22;102859.28;;;2.73;93.81
77662;BME280;67292;52.136;5.424;2023-03-03T07:25:50;102867.25;;;2.76;93.91
77662;BME280;67292;52.136;5.424;2023-03-03T07:28:27;102869.16;;;2.81;93.47
77662;BME280;67292;52.136;5.424;2023-03-03T07:30:56;102871.06;;;2.85;93.76
77662;BME280;67292;52.136;5.424;2023-03-03T07:33:43;102867.59;;;2.86;93.44
77662;BME280;67292;52.136;5.424;2023-03-03T07:36:27;102868.59;;;2.90;93.14
77662;BME280;67292;52.136;5.424;2023-03-03T07:38:57;102871.16;;;2.88;93.92
77662;BME280;67292;52.136;5.424;2023-03-03T07:41:25;102874.84;;;2.95;92.74
77662;BME280;67292;52.136;5.424;2023-03-03T07:44:04;102878.38;;;2.96;93.28
77662;BME280;67292;52.136;5.424;2023-03-03T07:46:43;102888.16;;;3.00;93.87
77662;BME280;67292;52.136;5.424;2023-03-03T07:49:22;102885.56;;;3.01;93.47
77662;BME280;67292;52.136;5.424;2023-03-03T07:52:00;102890.06;;;3.05;93.21
77662;BME280;67292;52.136;5.424;2023-03-03T07:54:39;102899.00;;;3.10;93.95
77662;BME280;67292;52.136;5.424;2023-03-03T07:57:27;102893.78;;;3.12;93.01
77662;BME280;67292;52.136;5.424;2023-03-03T08:02:56;102891.25;;;3.16;92.84
77662;BME280;67292;52.136;5.424;2023-03-03T08:05:28;102897.50;;;3.20;93.07
77662;BME280;67292;52.136;5.424;2023-03-03T08:13:19;102910.19;;;3.33;92.93
77662;BME280;67292;52.136;5.424;2023-03-03T08:15:51;102912.00;;;3.36;92.81
77662;BME280;67292;52.136;5.424;2023-03-03T08:18:29;102914.66;;;3.37;91.45
77662;BME280;67292;52.136;5.424;2023-03-03T08:21:02;102906.72;;;3.36;92.95
77662;BME280;67292;52.136;5.424;2023-03-03T08:23:30;102910.31;;;3.38;93.06
77662;BME280;67292;52.136;5.424;2023-03-03T08:25:56;102917.34;;;3.39;92.28
77662;BME280;67292;52.136;5.424;2023-03-03T08:28:23;102924.50;;;3.43;92.57
77662;BME280;67292;52.136;5.424;2023-03-03T08:30:50;102930.81;;;3.49;93.24
77662;BME280;67292;52.136;5.424;2023-03-03T08:33:25;102922.97;;;3.51;93.09
77662;BME280;67292;52.136;5.424;2023-03-03T08:35:52;102918.66;;;3.53;92.79
77662;BME280;67292;52.136;5.424;2023-03-03T08:38:20;102931.16;;;3.61;93.38
77662;BME280;67292;52.136;5.424;2023-03-03T08:40:48;102928.63;;;3.64;93.14
77662;BME280;67292;52.136;5.424;2023-03-03T08:43:15;102930.47;;;3.68;92.62
77662;BME280;67292;52.136;5.424;2023-03-03T08:45:48;102930.66;;;3.75;93.08
77662;BME280;67292;52.136;5.424;2023-03-03T08:48:16;102919.25;;;3.74;92.95
77662;BME280;67292;52.136;5.424;2023-03-03T08:50:44;102929.22;;;3.86;92.44
77662;BME280;67292;52.136;5.424;2023-03-03T08:53:11;102924.03;;;3.89;93.07
77662;BME280;67292;52.136;5.424;2023-03-03T08:55:39;102933.88;;;3.96;92.50
77662;BME280;67292;52.136;5.424;2023-03-03T08:58:06;102924.28;;;3.98;92.92
77662;BME280;67292;52.136;5.424;2023-03-03T09:00:33;102928.91;;;4.07;92.84
77662;BME280;67292;52.136;5.424;2023-03-03T09:03:00;102930.91;;;4.17;92.44
77662;BME280;67292;52.136;5.424;2023-03-03T09:05:28;102927.53;;;4.21;92.19
77662;BME280;67292;52.136;5.424;2023-03-03T09:07:54;102930.22;;;4.24;91.83
77662;BME280;67292;52.136;5.424;2023-03-03T09:10:24;102932.19;;;4.31;91.54
77662;BME280;67292;52.136;5.424;2023-03-03T09:13:10;102930.53;;;4.36;91.41
77662;BME280;67292;52.136;5.424;2023-03-03T09:15:39;102928.78;;;4.36;91.15
77662;BME280;67292;52.136;5.424;2023-03-03T09:18:20;102925.44;;;4.44;91.52
77662;BME280;67292;52.136;5.424;2023-03-03T09:20:51;102925.59;;;4.50;91.35
77662;BME280;67292;52.136;5.424;2023-03-03T09:28:49;102924.25;;;4.67;90.65
77662;BME280;67292;52.136;5.424;2023-03-03T09:31:29;102934.03;;;4.71;90.07
77662;BME280;67292;52.136;5.424;2023-03-03T09:33:57;102928.88;;;4.75;90.78
77662;BME280;67292;52.136;5.424;2023-03-03T09:36:35;102925.47;;;4.81;90.16
77662;BME280;67292;52.136;5.424;2023-03-03T09:39:21;102921.22;;;4.88;90.20
77662;BME280;67292;52.136;5.424;2023-03-03T09:48:09;102932.25;;;5.09;91.36
77662;BME280;67292;52.136;5.424;2023-03-03T09:50:58;102932.47;;;5.17;91.03
77662;BME280;67292;52.136;5.424;2023-03-03T09:54:30;102930.63;;;5.14;90.17
77662;BME280;67292;52.136;5.424;2023-03-03T09:56:38;102940.41;;;5.18;89.65
77662;BME280;67292;52.136;5.424;2023-03-03T09:59:20;102936.06;;;5.22;89.28
77662;BME280;67292;52.136;5.424;2023-03-03T10:02:22;102938.00;;;5.29;90.18
77662;BME280;67292;52.136;5.424;2023-03-03T10:07:34;102936.63;;;5.47;89.56
77662;BME280;67292;52.136;5.424;2023-03-03T10:15:45;102928.41;;;6.75;87.62
77662;BME280;67292;52.136;5.424;2023-03-03T10:21:08;102927.25;;;7.86;84.19
77662;BME280;67292;52.136;5.424;2023-03-03T10:29:25;102909.72;;;9.06;79.37
77662;BME280;67292;52.136;5.424;2023-03-03T10:35:14;102917.53;;;8.88;79.33
77662;BME280;67292;52.136;5.424;2023-03-03T10:40:41;102903.66;;;9.35;79.10
77662;BME280;67292;52.136;5.424;2023-03-03T10:51:32;102910.09;;;10.14;75.59
77662;BME280;67292;52.136;5.424;2023-03-03T10:57:00;102914.56;;;10.58;73.66
77662;BME280;67292;52.136;5.424;2023-03-03T11:00:00;102910.09;;;10.74;75.28
77662;BME280;67292;52.136;5.424;2023-03-03T11:03:12;102907.44;;;10.90;75.02
77662;BME280;67292;52.136;5.424;2023-03-03T11:06:00;102896.78;;;10.90;72.81
77662;BME280;67292;52.136;5.424;2023-03-03T11:08:33;102907.41;;;10.86;73.38
77662;BME280;67292;52.136;5.424;2023-03-03T11:11:17;102907.41;;;10.86;72.43
77662;BME280;67292;52.136;5.424;2023-03-03T11:14:25;102909.19;;;10.84;72.04
77662;BME280;67292;52.136;5.424;2023-03-03T11:17:07;102903.91;;;10.58;72.56
77662;BME280;67292;52.136;5.424;2023-03-03T11:22:58;102903.91;;;10.18;73.68
77662;BME280;67292;52.136;5.424;2023-03-03T11:25:46;102895.03;;;10.21;72.02
77662;BME280;67292;52.136;5.424;2023-03-03T11:36:54;102877.13;;;11.23;70.33
77662;BME280;67292;52.136;5.424;2023-03-03T11:39:25;102870.88;;;11.35;70.94
77662;BME280;67292;52.136;5.424;2023-03-03T11:44:44;102887.78;;;11.14;68.82
77662;BME280;67292;52.136;5.424;2023-03-03T11:47:41;102884.34;;;10.85;67.57
77662;BME280;67292;52.136;5.424;2023-03-03T11:50:25;102881.72;;;10.70;69.71
77662;BME280;67292;52.136;5.424;2023-03-03T11:55:54;102881.75;;;10.44;71.41
77662;BME280;67292;52.136;5.424;2023-03-03T11:58:36;102868.44;;;10.36;69.30
77662;BME280;67292;52.136;5.424;2023-03-03T12:01:13;102878.19;;;10.36;69.06
77662;BME280;67292;52.136;5.424;2023-03-03T12:03:51;102879.06;;;10.18;68.98
77662;BME280;67292;52.136;5.424;2023-03-03T12:12:05;102871.88;;;9.71;69.46
77662;BME280;67292;52.136;5.424;2023-03-03T12:20:56;102862.13;;;9.69;66.35
77662;BME280;67292;52.136;5.424;2023-03-03T12:23:46;102863.91;;;9.68;67.40
77662;BME280;67292;52.136;5.424;2023-03-03T12:26:25;102863.94;;;9.73;68.81
77662;BME280;67292;52.136;5.424;2023-03-03T12:29:21;102863.94;;;9.80;70.73
77662;BME280;67292;52.136;5.424;2023-03-03T12:32:07;102852.41;;;9.83;71.42
77662;BME280;67292;52.136;5.424;2023-03-03T12:35:05;102850.66;;;9.83;69.65
77662;BME280;67292;52.136;5.424;2023-03-03T12:40:25;102861.25;;;9.62;66.98
77662;BME280;67292;52.136;5.424;2023-03-03T12:43:15;102850.56;;;9.53;69.17
77662;BME280;67292;52.136;5.424;2023-03-03T12:48:17;102839.91;;;9.44;68.85
77662;BME280;67292;52.136;5.424;2023-03-03T12:56:37;102844.41;;;9.66;69.66
77662;BME280;67292;52.136;5.424;2023-03-03T12:59:26;102848.81;;;9.66;70.38
77662;BME280;67292;52.136;5.424;2023-03-03T13:02:31;102838.22;;;9.70;70.28
77662;BME280;67292;52.136;5.424;2023-03-03T13:05:15;102839.09;;;9.69;71.25
77662;BME280;67292;52.136;5.424;2023-03-03T13:07:50;102839.94;;;9.64;69.64
77662;BME280;67292;52.136;5.424;2023-03-03T13:10:38;102841.72;;;9.59;70.54
77662;BME280;67292;52.136;5.424;2023-03-03T13:13:23;102842.59;;;9.50;71.58
77662;BME280;67292;52.136;5.424;2023-03-03T13:16:03;102840.78;;;9.44;72.27
77662;BME280;67292;52.136;5.424;2023-03-03T13:18:51;102846.09;;;9.41;71.52
77662;BME280;67292;52.136;5.424;2023-03-03T13:21:54;102838.09;;;9.34;69.60
77662;BME280;67292;52.136;5.424;2023-03-03T13:24:32;102838.97;;;9.27;68.82
77662;BME280;67292;52.136;5.424;2023-03-03T13:27:07;102836.28;;;9.22;69.79
77662;BME280;67292;52.136;5.424;2023-03-03T13:32:22;102834.50;;;9.13;68.56
77662;BME280;67292;52.136;5.424;2023-03-03T13:35:10;102832.69;;;9.09;69.25
77662;BME280;67292;52.136;5.424;2023-03-03T13:37:48;102833.59;;;9.05;70.87
77662;BME280;67292;52.136;5.424;2023-03-03T13:40:26;102837.13;;;9.06;71.34
77662;BME280;67292;52.136;5.424;2023-03-03T13:43:08;102836.22;;;9.02;70.75
77662;BME280;67292;52.136;5.424;2023-03-03T13:48:45;102835.31;;;8.97;71.70
77662;BME280;67292;52.136;5.424;2023-03-03T13:51:42;102834.41;;;8.94;71.91
77662;BME280;67292;52.136;5.424;2023-03-03T14:02:57;102824.66;;;8.91;71.02
77662;BME280;67292;52.136;5.424;2023-03-03T14:05:45;102829.94;;;8.85;71.45
77662;BME280;67292;52.136;5.424;2023-03-03T14:08:28;102826.38;;;8.80;72.27
77662;BME280;67292;52.136;5.424;2023-03-03T14:13:56;102834.31;;;8.74;71.07
77662;BME280;67292;52.136;5.424;2023-03-03T14:19:16;102824.50;;;8.65;71.70
77662;BME280;67292;52.136;5.424;2023-03-03T14:22:10;102822.75;;;8.66;70.60
77662;BME280;67292;52.136;5.424;2023-03-03T14:25:03;102824.50;;;8.65;70.76
77662;BME280;67292;52.136;5.424;2023-03-03T14:35:42;102810.38;;;8.63;70.26
77662;BME280;67292;52.136;5.424;2023-03-03T14:38:15;102808.59;;;8.62;70.84
77662;BME280;67292;52.136;5.424;2023-03-03T14:40:45;102822.75;;;8.64;70.60
77662;BME280;67292;52.136;5.424;2023-03-03T14:43:25;102810.34;;;8.66;69.11
77662;BME280;67292;52.136;5.424;2023-03-03T14:45:53;102805.91;;;8.61;69.35
77662;BME280;67292;52.136;5.424;2023-03-03T14:48:23;102813.03;;;8.65;69.24
77662;BME280;67292;52.136;5.424;2023-03-03T14:50:59;102798.88;;;8.63;68.79
77662;BME280;67292;52.136;5.424;2023-03-03T14:53:47;102805.03;;;8.60;68.94
77662;BME280;67292;52.136;5.424;2023-03-03T14:56:25;102803.28;;;8.61;69.45
77662;BME280;67292;52.136;5.424;2023-03-03T14:59:21;102798.88;;;8.63;68.29
77662;BME280;67292;52.136;5.424;2023-03-03T15:04:44;102800.59;;;8.59;68.63
77662;BME280;67292;52.136;5.424;2023-03-03T15:07:34;102795.28;;;8.59;69.31
77662;BME280;67292;52.136;5.424;2023-03-03T15:10:04;102804.16;;;8.61;69.95
77662;BME280;67292;52.136;5.424;2023-03-03T15:12:34;102799.69;;;8.57;69.23
77662;BME280;67292;52.136;5.424;2023-03-03T15:17:58;102794.38;;;8.53;70.34
77662;BME280;67292;52.136;5.424;2023-03-03T15:20:42;102794.38;;;8.51;68.95
77662;BME280;67292;52.136;5.424;2023-03-03T15:23:34;102792.59;;;8.52;70.47
77662;BME280;67292;52.136;5.424;2023-03-03T15:26:41;102788.13;;;8.46;69.32
77662;BME280;67292;52.136;5.424;2023-03-03T15:29:31;102792.56;;;8.46;68.24
77662;BME280;67292;52.136;5.424;2023-03-03T15:32:17;102784.59;;;8.43;69.28
77662;BME280;67292;52.136;5.424;2023-03-03T15:34:56;102785.44;;;8.38;69.20
77662;BME280;67292;52.136;5.424;2023-03-03T15:40:48;102782.75;;;8.34;70.11
77662;BME280;67292;52.136;5.424;2023-03-03T15:52:28;102782.66;;;8.20;68.32
77662;BME280;67292;52.136;5.424;2023-03-03T15:55:27;102784.38;;;8.18;69.96
77662;BME280;67292;52.136;5.424;2023-03-03T15:58:16;102784.34;;;8.15;68.88
77662;BME280;67292;52.136;5.424;2023-03-03T16:03:56;102776.28;;;7.98;69.37
77662;BME280;67292;52.136;5.424;2023-03-03T16:31:18;102785.63;;;7.58;69.59
77662;BME280;67292;52.136;5.424;2023-03-03T16:36:31;102777.69;;;7.57;70.30
77662;BME280;67292;52.136;5.424;2023-03-03T16:39:19;102782.09;;;7.55;69.86